Time;durP1;ratioP1;P1;durP2;ratioP2;P2;SDS_P1;SDS_P2;PMS_P1;PMS_P2;Temp;Humidity;BMP_temperature;BMP_pressure;BME280_temperature;BME280_humidity;BME280_pressure;Samples;Min_cycle;Max_cycle;Signal;HPM_P1;HPM_P2
2022/08/29 00:01:29;;;;;;;4.17;2.70;;;;;;;;;;5071756;28;20233;-87
2022/08/29 00:03:56;;;;;;;5.97;2.43;;;;;;;;;;5072093;28;20217;-88
2022/08/29 00:06:23;;;;;;;4.07;2.37;;;;;;;;;;5070873;28;20240;-87
2022/08/29 00:08:50;;;;;;;2.63;2.33;;;;;;;;;;5058173;28;20237;-87
2022/08/29 00:11:17;;;;;;;5.03;2.33;;;;;;;;;;5051042;28;20241;-87
2022/08/29 00:13:45;;;;;;;5.43;2.70;;;;;;;;;;5052088;28;20210;-87
2022/08/29 00:16:12;;;;;;;5.47;3.60;;;;;;;;;;5058202;28;20230;-86
2022/08/29 00:18:40;;;;;;;3.37;2.10;;;;;;;;;;5051791;28;20203;-87
2022/08/29 00:21:08;;;;;;;6.33;2.33;;;;;;;;;;5051252;28;20234;-87
2022/08/29 00:23:35;;;;;;;5.23;2.63;;;;;;;;;;5051576;28;20202;-87
2022/08/29 00:26:02;;;;;;;3.97;2.53;;;;;;;;;;5050818;28;20234;-87
2022/08/29 00:28:29;;;;;;;4.70;2.97;;;;;;;;;;5051591;28;20229;-87
2022/08/29 00:30:56;;;;;;;4.93;2.70;;;;;;;;;;5051138;28;20296;-87
2022/08/29 00:33:24;;;;;;;4.77;2.80;;;;;;;;;;5051971;28;20214;-86
2022/08/29 00:35:52;;;;;;;4.30;2.70;;;;;;;;;;5056657;28;20242;-86
2022/08/29 00:38:20;;;;;;;5.90;2.70;;;;;;;;;;5053789;28;20194;-85
2022/08/29 00:40:48;;;;;;;4.77;2.50;;;;;;;;;;5052470;28;20245;-87
2022/08/29 00:43:15;;;;;;;5.50;2.77;;;;;;;;;;5055605;28;20209;-87
2022/08/29 00:45:46;;;;;;;3.60;2.40;;;;;;;;;;5054608;28;20253;-86
2022/08/29 00:48:14;;;;;;;3.57;2.60;;;;;;;;;;5055178;28;20444;-87
2022/08/29 00:50:45;;;;;;;4.43;2.70;;;;;;;;;;5054810;28;20234;-87
2022/08/29 00:53:15;;;;;;;3.80;2.63;;;;;;;;;;5055065;28;20297;-86
2022/08/29 00:55:43;;;;;;;4.37;2.83;;;;;;;;;;5054644;28;20246;-86
2022/08/29 00:58:12;;;;;;;4.60;2.57;;;;;;;;;;5055972;28;20202;-86
2022/08/29 01:00:40;;;;;;;3.90;2.60;;;;;;;;;;5070473;28;20240;-87
2022/08/29 01:03:07;;;;;;;3.30;2.50;;;;;;;;;;5071461;28;20210;-87
2022/08/29 01:05:36;;;;;;;6.27;3.00;;;;;;;;;;5058417;28;20648;-87
2022/08/29 01:08:04;;;;;;;7.73;3.23;;;;;;;;;;5032655;28;20635;-87
2022/08/29 01:13:17;;;;;;;4.03;3.00;;;;;;;;;;5054783;28;20190;-87
2022/08/29 01:15:45;;;;;;;5.43;2.97;;;;;;;;;;5061007;28;20821;-87
2022/08/29 01:18:14;;;;;;;7.37;2.80;;;;;;;;;;5014947;28;20253;-86
2022/08/29 01:20:45;;;;;;;5.57;2.83;;;;;;;;;;5014330;28;20314;-86
2022/08/29 01:23:14;;;;;;;5.87;3.00;;;;;;;;;;5019824;28;20207;-88
2022/08/29 01:25:46;;;;;;;5.30;3.00;;;;;;;;;;5035955;28;20282;-87
2022/08/29 01:28:16;;;;;;;6.80;3.07;;;;;;;;;;5054522;28;20367;-86
2022/08/29 01:30:57;;;;;;;5.47;3.00;;;;;;;;;;5053859;28;20321;-87
2022/08/29 01:33:24;;;;;;;5.30;3.07;;;;;;;;;;5053996;28;20197;-88
2022/08/29 01:35:51;;;;;;;5.80;2.70;;;;;;;;;;5053371;28;20233;-87
2022/08/29 01:38:26;;;;;;;3.07;2.60;;;;;;;;;;5053957;28;20213;-87
2022/08/29 01:40:55;;;;;;;3.20;2.87;;;;;;;;;;5059888;28;20271;-86
2022/08/29 01:43:22;;;;;;;4.77;3.10;;;;;;;;;;5054249;28;20206;-88
2022/08/29 01:45:49;;;;;;;6.00;2.77;;;;;;;;;;5066892;28;20261;-87
2022/08/29 01:48:17;;;;;;;3.10;2.80;;;;;;;;;;5056653;28;20246;-87
2022/08/29 01:50:44;;;;;;;4.90;2.83;;;;;;;;;;5057824;28;20232;-85
2022/08/29 01:53:11;;;;;;;4.43;2.67;;;;;;;;;;5053673;28;20670;-87
2022/08/29 01:55:38;;;;;;;5.07;2.93;;;;;;;;;;5052811;28;20840;-87
2022/08/29 01:58:07;;;;;;;3.20;2.80;;;;;;;;;;5053551;28;20213;-87
2022/08/29 02:00:35;;;;;;;4.70;2.93;;;;;;;;;;5033173;28;20234;-87
2022/08/29 02:03:02;;;;;;;3.60;2.73;;;;;;;;;;5033742;28;20261;-87
2022/08/29 02:05:30;;;;;;;8.17;3.93;;;;;;;;;;5034590;28;20293;-87
2022/08/29 02:07:57;;;;;;;5.37;2.87;;;;;;;;;;5073594;28;20225;-88
2022/08/29 02:10:24;;;;;;;5.43;3.10;;;;;;;;;;5072843;28;20945;-88
2022/08/29 02:12:52;;;;;;;3.70;2.93;;;;;;;;;;5073490;28;20209;-87
2022/08/29 02:15:21;;;;;;;6.53;3.00;;;;;;;;;;5072953;28;20616;-88
2022/08/29 02:17:48;;;;;;;4.43;3.53;;;;;;;;;;5066890;28;20222;-87
2022/08/29 02:20:15;;;;;;;4.07;2.90;;;;;;;;;;5052885;28;20230;-87
2022/08/29 02:22:42;;;;;;;3.10;2.80;;;;;;;;;;5053135;28;20213;-87
2022/08/29 02:27:51;;;;;;;4.33;2.93;;;;;;;;;;5052115;28;20213;-87
2022/08/29 02:30:20;;;;;;;3.83;2.60;;;;;;;;;;5054014;28;20257;-86
2022/08/29 02:32:47;;;;;;;4.40;2.60;;;;;;;;;;5065751;28;20243;-88
2022/08/29 02:35:14;;;;;;;4.53;2.73;;;;;;;;;;5056013;28;20240;-87
2022/08/29 02:37:42;;;;;;;5.47;3.23;;;;;;;;;;5052924;28;20198;-87
2022/08/29 02:40:09;;;;;;;3.10;2.67;;;;;;;;;;5052355;28;20843;-88
2022/08/29 02:42:37;;;;;;;5.33;3.73;;;;;;;;;;5052935;28;20209;-88
2022/08/29 02:45:04;;;;;;;4.90;3.20;;;;;;;;;;5052182;28;20256;-87
2022/08/29 02:47:35;;;;;;;5.97;2.63;;;;;;;;;;5052987;28;20301;-86
2022/08/29 02:50:03;;;;;;;3.67;3.13;;;;;;;;;;5052034;28;20229;-87
2022/08/29 02:52:30;;;;;;;4.67;2.87;;;;;;;;;;5052584;28;20293;-87
2022/08/29 02:54:57;;;;;;;3.47;2.73;;;;;;;;;;5052189;28;20234;-86
2022/08/29 02:57:24;;;;;;;4.67;3.00;;;;;;;;;;5052560;28;20217;-87
2022/08/29 02:59:51;;;;;;;5.03;3.07;;;;;;;;;;5032434;28;20235;-86
2022/08/29 03:02:18;;;;;;;3.73;2.47;;;;;;;;;;5064100;28;20201;-87
2022/08/29 03:04:47;;;;;;;4.03;3.10;;;;;;;;;;5051631;28;20245;-87
2022/08/29 03:07:14;;;;;;;3.80;3.03;;;;;;;;;;5032481;28;20701;-88
2022/08/29 03:09:41;;;;;;;3.57;2.93;;;;;;;;;;5032231;28;20249;-88
2022/08/29 03:12:08;;;;;;;5.37;3.10;;;;;;;;;;5032839;28;20302;-87
2022/08/29 03:14:35;;;;;;;3.53;2.60;;;;;;;;;;5031752;28;20918;-88
2022/08/29 03:17:02;;;;;;;3.23;2.90;;;;;;;;;;5032143;28;20662;-88
2022/08/29 03:19:29;;;;;;;6.30;3.13;;;;;;;;;;5035593;28;20230;-88
2022/08/29 03:21:59;;;;;;;3.87;2.63;;;;;;;;;;5072328;28;20212;-87
2022/08/29 03:24:26;;;;;;;4.13;2.80;;;;;;;;;;5071879;28;20213;-88
2022/08/29 03:26:53;;;;;;;4.83;2.70;;;;;;;;;;5055977;28;20224;-87
2022/08/29 03:29:20;;;;;;;4.30;3.00;;;;;;;;;;5051019;28;20225;-87
2022/08/29 03:31:47;;;;;;;4.53;3.00;;;;;;;;;;5053906;28;20194;-87
2022/08/29 03:34:14;;;;;;;3.90;2.83;;;;;;;;;;5051725;28;20240;-86
2022/08/29 03:36:42;;;;;;;4.43;2.67;;;;;;;;;;5072798;28;20201;-86
2022/08/29 03:39:10;;;;;;;4.43;2.80;;;;;;;;;;5038833;28;20212;-85
2022/08/29 03:41:37;;;;;;;5.63;3.07;;;;;;;;;;5052235;28;20217;-85
2022/08/29 03:44:04;;;;;;;4.10;2.60;;;;;;;;;;5060833;28;20210;-85
2022/08/29 03:46:31;;;;;;;3.07;2.77;;;;;;;;;;5062398;28;20321;-85
2022/08/29 03:48:59;;;;;;;4.67;3.03;;;;;;;;;;5054352;28;20260;-86
2022/08/29 03:51:26;;;;;;;4.70;2.83;;;;;;;;;;5052900;28;20237;-86
2022/08/29 03:53:53;;;;;;;6.10;3.10;;;;;;;;;;5052773;28;20829;-86
2022/08/29 03:56:21;;;;;;;3.07;2.77;;;;;;;;;;5052120;28;20254;-85
2022/08/29 03:58:49;;;;;;;4.40;2.50;;;;;;;;;;5052500;28;20202;-86
2022/08/29 04:01:17;;;;;;;6.00;3.20;;;;;;;;;;5052235;28;20230;-86
2022/08/29 04:03:45;;;;;;;4.53;2.90;;;;;;;;;;5060830;28;20710;-86
2022/08/29 04:06:12;;;;;;;4.07;2.80;;;;;;;;;;5071865;28;20233;-85
2022/08/29 04:08:39;;;;;;;4.13;2.90;;;;;;;;;;5061760;28;20226;-85
2022/08/29 04:11:09;;;;;;;4.37;3.00;;;;;;;;;;5056964;28;20222;-83
2022/08/29 04:13:38;;;;;;;4.33;2.90;;;;;;;;;;5055972;28;20264;-83
2022/08/29 04:16:11;;;;;;;4.03;2.73;;;;;;;;;;5066841;28;20608;-83
2022/08/29 04:18:38;;;;;;;4.60;2.60;;;;;;;;;;5037608;28;20203;-83
2022/08/29 04:21:06;;;;;;;3.77;2.77;;;;;;;;;;5036952;28;20249;-84
2022/08/29 04:23:34;;;;;;;5.17;2.90;;;;;;;;;;5060585;28;20213;-80
2022/08/29 04:26:01;;;;;;;3.10;2.57;;;;;;;;;;5069792;28;20236;-80
2022/08/29 04:28:28;;;;;;;4.33;2.97;;;;;;;;;;5065535;28;20206;-79
2022/08/29 04:30:56;;;;;;;3.20;2.90;;;;;;;;;;5057990;28;20673;-79
2022/08/29 04:33:25;;;;;;;4.50;3.27;;;;;;;;;;5068800;28;20209;-78
2022/08/29 04:35:53;;;;;;;4.33;2.67;;;;;;;;;;5070788;28;20299;-79
2022/08/29 04:38:20;;;;;;;4.77;2.70;;;;;;;;;;5088748;28;20202;-78
2022/08/29 04:40:47;;;;;;;6.17;2.97;;;;;;;;;;5087872;28;20240;-80
2022/08/29 04:43:14;;;;;;;5.20;2.67;;;;;;;;;;5076973;28;20205;-81
2022/08/29 04:45:41;;;;;;;8.40;3.20;;;;;;;;;;5075793;28;20257;-79
2022/08/29 04:48:10;;;;;;;4.87;3.20;;;;;;;;;;5076158;28;20213;-80
2022/08/29 04:50:37;;;;;;;5.10;3.10;;;;;;;;;;5076252;28;20245;-79
2022/08/29 04:53:04;;;;;;;4.77;3.30;;;;;;;;;;5078077;28;20219;-79
2022/08/29 04:55:31;;;;;;;3.60;2.63;;;;;;;;;;5078056;28;20240;-80
2022/08/29 04:57:58;;;;;;;3.83;2.77;;;;;;;;;;5077028;28;20210;-79
2022/08/29 05:00:27;;;;;;;8.40;3.30;;;;;;;;;;5078182;28;20236;-80
2022/08/29 05:02:54;;;;;;;4.97;3.20;;;;;;;;;;5078864;28;20205;-79
2022/08/29 05:05:23;;;;;;;3.63;3.07;;;;;;;;;;5077797;28;20229;-79
2022/08/29 05:07:50;;;;;;;6.00;3.23;;;;;;;;;;5079035;28;20202;-80
2022/08/29 05:10:18;;;;;;;5.83;3.13;;;;;;;;;;5083313;28;20240;-83
2022/08/29 05:12:46;;;;;;;4.43;3.13;;;;;;;;;;5095252;28;20212;-82
2022/08/29 05:15:13;;;;;;;7.03;3.20;;;;;;;;;;5092810;28;20236;-80
2022/08/29 05:17:40;;;;;;;5.13;3.10;;;;;;;;;;5081205;28;20210;-83
2022/08/29 05:20:08;;;;;;;5.00;3.40;;;;;;;;;;5065299;28;20221;-81
2022/08/29 05:22:38;;;;;;;5.47;2.90;;;;;;;;;;5061306;28;20202;-82
2022/08/29 05:25:05;;;;;;;4.33;2.93;;;;;;;;;;5057785;28;20238;-82
2022/08/29 05:27:33;;;;;;;3.30;2.87;;;;;;;;;;5058571;28;20217;-81
2022/08/29 05:30:00;;;;;;;4.60;3.20;;;;;;;;;;5058472;28;20233;-82
2022/08/29 05:32:27;;;;;;;8.63;3.13;;;;;;;;;;5070123;28;20206;-82
2022/08/29 05:34:54;;;;;;;5.17;3.03;;;;;;;;;;5055521;28;20238;-82
2022/08/29 05:37:22;;;;;;;5.67;3.17;;;;;;;;;;5056301;28;20214;-84
2022/08/29 05:39:50;;;;;;;4.47;3.00;;;;;;;;;;5056912;28;20260;-83
2022/08/29 05:42:20;;;;;;;5.47;3.10;;;;;;;;;;5055155;28;20210;-83
2022/08/29 05:44:48;;;;;;;5.47;3.20;;;;;;;;;;5054318;28;20340;-83
2022/08/29 05:47:17;;;;;;;8.40;3.10;;;;;;;;;;5054852;28;20217;-83
2022/08/29 05:49:45;;;;;;;3.00;2.70;;;;;;;;;;5054492;28;20261;-83
2022/08/29 05:52:13;;;;;;;5.23;3.37;;;;;;;;;;5054547;28;20936;-82
2022/08/29 05:54:41;;;;;;;4.63;3.00;;;;;;;;;;5054105;28;20240;-82
2022/08/29 05:57:11;;;;;;;4.00;2.90;;;;;;;;;;5054923;28;20217;-82
2022/08/29 05:59:38;;;;;;;5.07;2.73;;;;;;;;;;5054860;28;20661;-82
2022/08/29 06:02:07;;;;;;;6.20;3.00;;;;;;;;;;5055095;28;20217;-82
2022/08/29 06:04:34;;;;;;;4.93;2.90;;;;;;;;;;5054938;28;20242;-83
2022/08/29 06:07:01;;;;;;;3.53;2.87;;;;;;;;;;5054543;28;20202;-83
2022/08/29 06:09:28;;;;;;;5.43;3.00;;;;;;;;;;5054430;28;20249;-83
2022/08/29 06:11:56;;;;;;;5.40;2.77;;;;;;;;;;5054251;28;20206;-83
2022/08/29 06:14:25;;;;;;;8.17;2.70;;;;;;;;;;5054179;28;20194;-83
2022/08/29 06:16:52;;;;;;;5.27;2.67;;;;;;;;;;5054744;28;20308;-83
2022/08/29 06:19:19;;;;;;;3.83;2.80;;;;;;;;;;5053931;28;20186;-82
2022/08/29 06:21:46;;;;;;;4.43;2.63;;;;;;;;;;5054277;28;20206;-83
2022/08/29 06:24:13;;;;;;;3.47;2.50;;;;;;;;;;5053803;28;20206;-82
2022/08/29 06:26:40;;;;;;;7.47;2.70;;;;;;;;;;5053886;28;20202;-83
2022/08/29 06:29:09;;;;;;;4.60;2.77;;;;;;;;;;5053780;28;20221;-83
2022/08/29 06:31:38;;;;;;;3.33;2.70;;;;;;;;;;5053576;28;20233;-83
2022/08/29 06:34:06;;;;;;;4.30;2.70;;;;;;;;;;5053717;28;20217;-82
2022/08/29 06:36:33;;;;;;;6.70;2.67;;;;;;;;;;5053182;28;20237;-83
2022/08/29 06:39:02;;;;;;;5.57;3.23;;;;;;;;;;5053550;28;20198;-83
2022/08/29 06:41:29;;;;;;;6.53;2.90;;;;;;;;;;5055715;28;20303;-83
2022/08/29 06:43:57;;;;;;;6.77;3.17;;;;;;;;;;5070516;28;20202;-83
2022/08/29 06:46:25;;;;;;;5.97;2.47;;;;;;;;;;5053351;28;20244;-82
2022/08/29 06:48:53;;;;;;;6.67;2.80;;;;;;;;;;5054841;28;20213;-82
2022/08/29 06:51:20;;;;;;;3.77;2.33;;;;;;;;;;5053877;28;20233;-83
2022/08/29 06:53:47;;;;;;;5.27;2.60;;;;;;;;;;5054648;28;20202;-83
2022/08/29 06:56:15;;;;;;;5.03;3.30;;;;;;;;;;5052521;28;20237;-83
2022/08/29 06:58:42;;;;;;;6.77;2.70;;;;;;;;;;5053211;28;20202;-83
2022/08/29 07:01:10;;;;;;;5.83;2.10;;;;;;;;;;5054112;28;20242;-82
2022/08/29 07:03:37;;;;;;;4.67;2.73;;;;;;;;;;5056742;28;20243;-80
2022/08/29 07:06:06;;;;;;;7.47;2.40;;;;;;;;;;5058049;28;20238;-80
2022/08/29 07:08:33;;;;;;;5.00;2.97;;;;;;;;;;5063567;28;20220;-81
2022/08/29 07:11:00;;;;;;;4.27;2.37;;;;;;;;;;5069107;28;20602;-81
2022/08/29 07:13:28;;;;;;;7.67;2.80;;;;;;;;;;5069743;28;20194;-81
2022/08/29 07:15:56;;;;;;;3.93;2.20;;;;;;;;;;5068133;28;20230;-79
2022/08/29 07:18:23;;;;;;;5.03;2.70;;;;;;;;;;5058741;28;20245;-80
2022/08/29 07:20:50;;;;;;;4.77;2.43;;;;;;;;;;5053040;28;20234;-79
2022/08/29 07:23:18;;;;;;;7.13;2.60;;;;;;;;;;5056731;28;20206;-80
2022/08/29 07:25:45;;;;;;;6.37;2.70;;;;;;;;;;5063815;28;20287;-80
2022/08/29 07:28:13;;;;;;;6.70;2.50;;;;;;;;;;5065922;28;20573;-82
2022/08/29 07:30:40;;;;;;;5.63;2.13;;;;;;;;;;5067946;28;20238;-82
2022/08/29 07:33:08;;;;;;;3.87;2.30;;;;;;;;;;5069360;28;20209;-83
2022/08/29 07:35:35;;;;;;;4.83;2.40;;;;;;;;;;5055748;28;20617;-82
2022/08/29 07:38:02;;;;;;;7.55;2.30;;;;;;;;;;5064963;28;20205;-82
2022/08/29 07:40:31;;;;;;;4.18;2.40;;;;;;;;;;5062432;28;20236;-82
2022/08/29 07:42:58;;;;;;;4.57;2.05;;;;;;;;;;5055278;28;20198;-83
2022/08/29 07:45:25;;;;;;;7.10;3.13;;;;;;;;;;5063997;28;20225;-82
2022/08/29 07:47:54;;;;;;;3.75;2.03;;;;;;;;;;5069167;28;20209;-84
2022/08/29 07:50:23;;;;;;;2.78;2.00;;;;;;;;;;5072067;28;20233;-84
2022/08/29 07:52:51;;;;;;;3.88;2.30;;;;;;;;;;5072298;28;20206;-82
2022/08/29 07:55:20;;;;;;;4.32;2.10;;;;;;;;;;5070419;28;20714;-84
2022/08/29 07:57:51;;;;;;;5.18;2.35;;;;;;;;;;5072026;28;20293;-82
2022/08/29 08:03:02;;;;;;;4.95;2.20;;;;;;;;;;5065913;28;20198;-84
2022/08/29 08:05:29;;;;;;;4.40;2.00;;;;;;;;;;5060436;28;20259;-84
2022/08/29 08:07:56;;;;;;;4.45;2.20;;;;;;;;;;5056656;28;20697;-83
2022/08/29 08:10:23;;;;;;;6.15;2.15;;;;;;;;;;5055948;28;20238;-84
2022/08/29 08:12:52;;;;;;;7.20;1.95;;;;;;;;;;5069360;28;20195;-84
2022/08/29 08:15:20;;;;;;;4.50;1.90;;;;;;;;;;5058129;28;20237;-84
2022/08/29 08:17:49;;;;;;;3.38;1.70;;;;;;;;;;5059304;28;20210;-83
2022/08/29 08:20:16;;;;;;;4.47;2.10;;;;;;;;;;5064625;28;20229;-85
2022/08/29 08:22:44;;;;;;;6.50;2.00;;;;;;;;;;5073273;28;20210;-85
2022/08/29 08:25:11;;;;;;;3.97;2.03;;;;;;;;;;5060255;28;20264;-84
2022/08/29 08:27:38;;;;;;;4.53;1.95;;;;;;;;;;5055163;28;20209;-85
2022/08/29 08:30:07;;;;;;;6.03;2.40;;;;;;;;;;5054671;28;20238;-85
2022/08/29 08:32:34;;;;;;;4.05;1.90;;;;;;;;;;5055071;28;20202;-84
2022/08/29 08:35:01;;;;;;;3.50;2.00;;;;;;;;;;5055465;28;20233;-86
2022/08/29 08:37:28;;;;;;;4.68;2.28;;;;;;;;;;5070007;28;20201;-84
2022/08/29 08:39:56;;;;;;;3.50;1.83;;;;;;;;;;5057787;28;20226;-84
2022/08/29 08:42:28;;;;;;;4.38;2.20;;;;;;;;;;5056283;28;20186;-85
2022/08/29 08:45:03;;;;;;;3.75;1.83;;;;;;;;;;5055178;28;20312;-85
2022/08/29 08:47:33;;;;;;;6.20;2.08;;;;;;;;;;5055198;28;20190;-85
2022/08/29 08:50:01;;;;;;;4.22;1.77;;;;;;;;;;5054756;28;20839;-86
2022/08/29 08:52:34;;;;;;;3.72;2.10;;;;;;;;;;5055272;28;20210;-85
2022/08/29 08:55:03;;;;;;;3.63;1.95;;;;;;;;;;5054479;28;20311;-84
2022/08/29 08:57:32;;;;;;;2.10;1.70;;;;;;;;;;5054723;28;20681;-82
2022/08/29 08:59:59;;;;;;;3.20;2.00;;;;;;;;;;5054196;28;20229;-85
2022/08/29 09:02:33;;;;;;;3.05;1.90;;;;;;;;;;5070186;28;20212;-86
2022/08/29 09:05:06;;;;;;;4.13;2.20;;;;;;;;;;5075848;28;20234;-86
2022/08/29 09:07:39;;;;;;;4.55;2.35;;;;;;;;;;5077302;28;20197;-85
2022/08/29 09:10:15;;;;;;;4.15;2.03;;;;;;;;;;5076512;28;20238;-86
2022/08/29 09:12:50;;;;;;;3.63;1.92;;;;;;;;;;5084075;28;20323;-85
2022/08/29 09:15:18;;;;;;;4.68;1.90;;;;;;;;;;5079702;28;20775;-86
2022/08/29 09:17:47;;;;;;;4.05;2.05;;;;;;;;;;5075168;28;20205;-84
2022/08/29 09:20:18;;;;;;;6.72;2.28;;;;;;;;;;5078042;28;20228;-84
2022/08/29 09:22:58;;;;;;;5.05;2.40;;;;;;;;;;5086677;28;20278;-84
2022/08/29 09:25:27;;;;;;;6.30;2.55;;;;;;;;;;5084806;28;20259;-84
2022/08/29 09:27:54;;;;;;;4.30;1.92;;;;;;;;;;5076416;28;20209;-84
2022/08/29 09:30:23;;;;;;;4.30;2.03;;;;;;;;;;5085572;28;20233;-86
2022/08/29 09:32:55;;;;;;;5.50;2.30;;;;;;;;;;5079869;28;20205;-85
2022/08/29 09:35:24;;;;;;;4.78;2.00;;;;;;;;;;5075117;28;20241;-85
2022/08/29 09:38:02;;;;;;;2.85;2.10;;;;;;;;;;5075901;28;20206;-86
2022/08/29 09:40:42;;;;;;;5.93;2.30;;;;;;;;;;5073633;28;20638;-86
2022/08/29 09:43:16;;;;;;;3.50;2.30;;;;;;;;;;5074949;28;20193;-86
2022/08/29 09:46:02;;;;;;;5.15;2.20;;;;;;;;;;5073393;28;20307;-85
2022/08/29 09:48:30;;;;;;;7.75;2.10;;;;;;;;;;5062804;28;20697;-85
2022/08/29 09:51:09;;;;;;;5.70;2.08;;;;;;;;;;5045122;28;20661;-86
2022/08/29 09:53:36;;;;;;;5.70;1.90;;;;;;;;;;5054360;28;20186;-86
2022/08/29 09:56:06;;;;;;;3.38;2.20;;;;;;;;;;5052546;28;20245;-86
2022/08/29 09:58:35;;;;;;;4.43;2.10;;;;;;;;;;5055109;28;20268;-86
2022/08/29 10:01:03;;;;;;;3.42;1.92;;;;;;;;;;5054921;28;20237;-86
2022/08/29 10:03:33;;;;;;;4.72;1.92;;;;;;;;;;5055216;28;20202;-86
2022/08/29 10:06:07;;;;;;;4.40;1.90;;;;;;;;;;5053109;28;20241;-87
2022/08/29 10:08:35;;;;;;;3.97;2.35;;;;;;;;;;5053431;28;20201;-86
2022/08/29 10:11:04;;;;;;;3.72;1.92;;;;;;;;;;5052659;28;20234;-86
2022/08/29 10:13:35;;;;;;;4.43;2.05;;;;;;;;;;5053390;28;20646;-86
2022/08/29 10:16:06;;;;;;;6.07;2.10;;;;;;;;;;5052130;28;20340;-86
2022/08/29 10:18:38;;;;;;;5.07;2.17;;;;;;;;;;5052987;28;20209;-86
2022/08/29 10:21:16;;;;;;;3.33;1.63;;;;;;;;;;5052836;28;20240;-86
2022/08/29 10:23:50;;;;;;;4.88;1.98;;;;;;;;;;5052815;28;20744;-86
2022/08/29 10:26:26;;;;;;;8.20;2.17;;;;;;;;;;5052322;28;20712;-86
2022/08/29 10:28:56;;;;;;;3.38;2.03;;;;;;;;;;5052951;28;20204;-86
2022/08/29 10:31:27;;;;;;;3.45;1.70;;;;;;;;;;5052325;28;20238;-86
2022/08/29 10:34:02;;;;;;;5.55;2.33;;;;;;;;;;5052717;28;20206;-86
2022/08/29 10:36:32;;;;;;;4.90;2.47;;;;;;;;;;5052382;28;20327;-86
2022/08/29 10:39:03;;;;;;;4.85;2.38;;;;;;;;;;5052774;28;20244;-86
2022/08/29 10:41:33;;;;;;;5.20;2.00;;;;;;;;;;5052380;28;20775;-85
2022/08/29 10:44:07;;;;;;;6.28;2.10;;;;;;;;;;5053561;28;20206;-87
2022/08/29 10:46:41;;;;;;;3.28;1.90;;;;;;;;;;5052561;28;20241;-85
2022/08/29 10:49:15;;;;;;;4.20;1.98;;;;;;;;;;5052003;28;20213;-86
2022/08/29 10:51:48;;;;;;;5.22;1.88;;;;;;;;;;5052606;28;20267;-85
2022/08/29 10:54:21;;;;;;;4.93;2.65;;;;;;;;;;5052433;28;20194;-84
2022/08/29 10:56:49;;;;;;;3.10;1.67;;;;;;;;;;5006238;22;20243;-86
2022/08/29 10:59:21;;;;;;;2.92;1.83;;;;;;;;;;4971908;28;20224;-87
2022/08/29 11:01:49;;;;;;;3.58;1.70;;;;;;;;;;4990884;28;20644;-86
2022/08/29 11:04:19;;;;;;;3.25;2.17;;;;;;;;;;4989839;28;20636;-86
2022/08/29 11:06:50;;;;;;;5.47;1.92;;;;;;;;;;4990965;28;20259;-86
2022/08/29 11:09:20;;;;;;;3.15;1.95;;;;;;;;;;4991924;28;20193;-86
2022/08/29 11:11:57;;;;;;;5.72;2.63;;;;;;;;;;4990197;28;20630;-87
2022/08/29 11:14:26;;;;;;;4.90;2.00;;;;;;;;;;4990519;28;20188;-86
2022/08/29 11:16:55;;;;;;;11.35;2.40;;;;;;;;;;4990712;28;20602;-88
2022/08/29 11:19:25;;;;;;;8.02;2.03;;;;;;;;;;4989540;28;20695;-87
2022/08/29 11:21:55;;;;;;;5.38;2.25;;;;;;;;;;4990164;28;20295;-88
2022/08/29 11:24:22;;;;;;;3.67;2.13;;;;;;;;;;4989714;28;20212;-87
2022/08/29 11:26:57;;;;;;;2.13;1.75;;;;;;;;;;4989931;28;20227;-88
2022/08/29 11:29:30;;;;;;;2.72;1.95;;;;;;;;;;4989706;28;20278;-88
2022/08/29 11:32:02;;;;;;;2.95;1.98;;;;;;;;;;5004690;28;20228;-95
2022/08/29 11:34:35;;;;;;;3.25;1.73;;;;;;;;;;5007984;28;20235;-93
2022/08/29 11:37:16;;;;;;;3.35;2.10;;;;;;;;;;5009900;28;20227;-93
2022/08/29 11:39:58;;;;;;;3.30;1.90;;;;;;;;;;5008641;28;20220;-92
2022/08/29 11:42:28;;;;;;;5.03;1.90;;;;;;;;;;5005319;28;20204;-95
2022/08/29 11:44:58;;;;;;;6.30;2.05;;;;;;;;;;5006622;28;20261;-94
2022/08/29 11:47:40;;;;;;;3.13;1.90;;;;;;;;;;5007706;28;20197;-94
2022/08/29 11:50:18;;;;;;;3.53;1.95;;;;;;;;;;5003488;28;20243;-94
2022/08/29 11:52:51;;;;;;;3.67;2.20;;;;;;;;;;5003110;28;20235;-93
2022/08/29 11:55:35;;;;;;;4.25;1.67;;;;;;;;;;4997313;28;20243;-94
2022/08/29 11:58:04;;;;;;;4.00;2.05;;;;;;;;;;4989018;28;20200;-94
2022/08/29 12:00:49;;;;;;;4.45;1.65;;;;;;;;;;4982869;28;20240;-95
2022/08/29 12:03:36;;;;;;;3.70;2.00;;;;;;;;;;4999613;28;20226;-94
2022/08/29 12:06:05;;;;;;;1.98;1.70;;;;;;;;;;5004306;28;20250;-95
2022/08/29 12:08:37;;;;;;;2.90;1.80;;;;;;;;;;4999892;28;20204;-95
2022/08/29 12:11:04;;;;;;;1.75;1.50;;;;;;;;;;5004844;28;20228;-94
2022/08/29 12:13:57;;;;;;;3.75;2.00;;;;;;;;;;5004292;28;20207;-94
2022/08/29 12:16:26;;;;;;;3.42;1.80;;;;;;;;;;4999121;28;20240;-92
2022/08/29 12:18:54;;;;;;;3.85;1.77;;;;;;;;;;5007117;28;20196;-94
2022/08/29 12:21:42;;;;;;;4.07;1.90;;;;;;;;;;5005814;28;20234;-95
2022/08/29 12:24:25;;;;;;;3.05;1.70;;;;;;;;;;5006584;28;20257;-95
2022/08/29 12:26:53;;;;;;;2.40;1.85;;;;;;;;;;5007160;28;20232;-91
2022/08/29 12:29:21;;;;;;;4.30;1.85;;;;;;;;;;4992469;28;20212;-92
2022/08/29 12:32:06;;;;;;;3.70;1.80;;;;;;;;;;5005506;28;20239;-95
2022/08/29 12:34:42;;;;;;;3.20;1.88;;;;;;;;;;5005570;28;20245;-91
2022/08/29 12:37:30;;;;;;;3.50;1.80;;;;;;;;;;5010636;28;20306;-93
2022/08/29 12:40:07;;;;;;;5.75;2.15;;;;;;;;;;5016723;28;20219;-95
2022/08/29 12:42:39;;;;;;;3.17;1.80;;;;;;;;;;5012511;28;20242;-93
2022/08/29 12:45:10;;;;;;;1.80;1.70;;;;;;;;;;5009506;28;20242;-92
2022/08/29 12:47:39;;;;;;;2.65;1.77;;;;;;;;;;5013339;28;20233;-92
2022/08/29 12:50:13;;;;;;;2.42;1.83;;;;;;;;;;5007997;28;20626;-92
2022/08/29 12:52:41;;;;;;;3.00;1.90;;;;;;;;;;5011006;28;20245;-93
2022/08/29 12:55:19;;;;;;;2.33;1.80;;;;;;;;;;5013649;28;20231;-95
2022/08/29 12:57:48;;;;;;;3.50;1.90;;;;;;;;;;5010896;28;20199;-94
2022/08/29 13:00:18;;;;;;;2.97;2.00;;;;;;;;;;5000151;28;20714;-91
2022/08/29 13:02:55;;;;;;;4.90;2.15;;;;;;;;;;5001136;28;20200;-93
2022/08/29 13:05:23;;;;;;;3.25;1.75;;;;;;;;;;4999842;28;20520;-93
2022/08/29 13:07:53;;;;;;;5.22;1.77;;;;;;;;;;4997419;28;20200;-93
2022/08/29 13:10:20;;;;;;;4.47;1.90;;;;;;;;;;4997809;28;20235;-94
2022/08/29 13:12:49;;;;;;;2.08;1.70;;;;;;;;;;5003248;28;20232;-92
2022/08/29 13:15:19;;;;;;;4.07;1.65;;;;;;;;;;5006581;28;20240;-93
2022/08/29 13:17:47;;;;;;;3.83;1.70;;;;;;;;;;4999382;28;20208;-93
2022/08/29 13:20:32;;;;;;;2.13;1.92;;;;;;;;;;4999142;28;20257;-92
2022/08/29 13:23:07;;;;;;;1.90;1.70;;;;;;;;;;4994805;28;20549;-93
2022/08/29 13:25:34;;;;;;;3.22;1.95;;;;;;;;;;4999987;28;20252;-92
2022/08/29 13:28:03;;;;;;;3.72;1.40;;;;;;;;;;5000010;28;20258;-94
2022/08/29 13:30:30;;;;;;;5.68;2.05;;;;;;;;;;4995733;28;20236;-91
2022/08/29 13:32:57;;;;;;;2.10;1.60;;;;;;;;;;4991435;28;20248;-85
2022/08/29 13:35:30;;;;;;;5.00;1.83;;;;;;;;;;4990904;28;20339;-85
2022/08/29 13:38:10;;;;;;;2.60;1.60;;;;;;;;;;4991764;28;20559;-85
2022/08/29 13:40:42;;;;;;;2.38;1.58;;;;;;;;;;4991069;28;20231;-87
2022/08/29 13:43:26;;;;;;;4.20;1.70;;;;;;;;;;4991349;28;20185;-86
2022/08/29 13:46:01;;;;;;;2.45;1.67;;;;;;;;;;4990914;28;20236;-87
2022/08/29 13:48:28;;;;;;;2.10;1.63;;;;;;;;;;4991701;28;20187;-87
2022/08/29 13:50:55;;;;;;;1.85;1.48;;;;;;;;;;4991097;28;20247;-87
2022/08/29 13:53:22;;;;;;;3.90;1.98;;;;;;;;;;4991970;28;20239;-87
2022/08/29 13:55:49;;;;;;;3.05;1.80;;;;;;;;;;4991705;28;20251;-87
2022/08/29 13:58:19;;;;;;;4.70;2.00;;;;;;;;;;4991532;28;20208;-86
2022/08/29 14:00:46;;;;;;;3.95;1.60;;;;;;;;;;4990527;28;20232;-86
2022/08/29 14:03:15;;;;;;;3.42;1.77;;;;;;;;;;4991424;28;20211;-86
2022/08/29 14:05:42;;;;;;;5.15;1.73;;;;;;;;;;4990510;28;20247;-87
2022/08/29 14:08:11;;;;;;;3.05;1.73;;;;;;;;;;4991665;28;20672;-87
2022/08/29 14:10:38;;;;;;;2.00;1.65;;;;;;;;;;4990566;28;20606;-86
2022/08/29 14:13:05;;;;;;;3.45;1.55;;;;;;;;;;4991476;28;20642;-86
2022/08/29 14:15:34;;;;;;;3.00;1.80;;;;;;;;;;4990528;28;20258;-86
2022/08/29 14:18:01;;;;;;;2.67;1.33;;;;;;;;;;4991405;28;20248;-87
2022/08/29 14:20:28;;;;;;;3.22;1.60;;;;;;;;;;4969325;28;20334;-91
2022/08/29 14:22:55;;;;;;;2.25;2.05;;;;;;;;;;4992394;28;20208;-93
2022/08/29 14:25:23;;;;;;;3.40;2.00;;;;;;;;;;4994847;28;20250;-94
2022/08/29 14:27:52;;;;;;;1.70;1.60;;;;;;;;;;4996977;28;20212;-94
2022/08/29 14:30:21;;;;;;;2.63;1.52;;;;;;;;;;4999694;28;20270;-94
2022/08/29 14:32:49;;;;;;;5.15;1.60;;;;;;;;;;4997092;28;20227;-94
2022/08/29 14:35:17;;;;;;;3.88;1.70;;;;;;;;;;4994664;28;20338;-93
2022/08/29 14:37:44;;;;;;;2.00;1.52;;;;;;;;;;4997510;28;20229;-94
2022/08/29 14:40:11;;;;;;;2.00;1.40;;;;;;;;;;4995378;28;20231;-95
2022/08/29 14:42:39;;;;;;;2.72;1.75;;;;;;;;;;4995528;28;20204;-93
2022/08/29 14:45:06;;;;;;;2.28;1.75;;;;;;;;;;4996328;28;20243;-93
2022/08/29 14:47:34;;;;;;;6.90;2.65;;;;;;;;;;5014442;28;20223;-93
2022/08/29 14:50:02;;;;;;;1.40;1.30;;;;;;;;;;5007576;28;20257;-94
2022/08/29 14:52:29;;;;;;;2.42;1.58;;;;;;;;;;4999707;28;20227;-93
2022/08/29 14:54:56;;;;;;;2.15;1.40;;;;;;;;;;4998395;28;20236;-94
2022/08/29 14:57:24;;;;;;;2.00;1.80;;;;;;;;;;4995688;28;20223;-94
2022/08/29 14:59:51;;;;;;;2.05;1.60;;;;;;;;;;4995193;28;20253;-94
2022/08/29 15:02:18;;;;;;;4.30;1.80;;;;;;;;;;4995592;28;20201;-93
2022/08/29 15:04:47;;;;;;;1.30;1.20;;;;;;;;;;4994045;28;20636;-94